In Rescue
 
Open Full Screen Window  High Contrast Mode
Wind Gusting 00 knots
07
May 27, 2024 1:45 PM CDT
Present Weather: Thunderstorms in the Vicinity
Weather Information
Wind Direction
  300 °
Wind Speed
  07 kt (8 mph)
Wind Gust
  00 kt (0 mph)
Altimeter
29.79 in
Visibility
10 SM
Temperature
18° C
64° F
Dewpoint
10° C
50° F
Humidity
60%
Sky Condition
Scattered @ 5,500 ft
Scattered @ 4,500 ft
Scattered @ 3,400 ft
VFR

METAR KD39 271845Z AUTO 30007KT 10SM VCTS SCT034 SCT045 SCT055 18/10 A2979 RMK AO2 LTG DSNT S T01820099

FAA Disclaimer: The data displayed is for advisory purposes only and is not to be used for flight planning or operations.